SWU1922 LIPB-LIEO
Flight info
| Callsign | SWU1922 |
|---|---|
| Flight time | 1h 15m |
| Altitude | 23000 |
| Route | ADOSA DCT OSMOX/N0314F190 L12 ELB Q125 OLBEK |
| Aircraft | DH8D/M-SDE2E3FGRY/H |
Departure
| Time | 2026-04-23 09:58 |
|---|---|
| Airport | Bolzano Airport (LIPB) |
Arrival
| Time | 2026-04-23 11:13 |
|---|---|
| Airport | Olbia Costa Smeralda Airport (LIEO) |
| Time | Latitude | Longitude | Altitude | Speed | Heading |
|---|---|---|---|---|---|
| 2026-04-23 09:33 | 46.46250 | 11.32878 | 803 ft | 0 kts | 100° |
| 2026-04-23 09:51 | 46.46250 | 11.32879 | 802 ft | 0 kts | 100° |
| 2026-04-23 09:53 | 46.46250 | 11.32880 | 802 ft | 0 kts | 104° |
| 2026-04-23 09:53 | 46.46243 | 11.32884 | 802 ft | 1 kts | 186° |
| 2026-04-23 09:53 | 46.46239 | 11.32856 | 802 ft | 5 kts | 266° |
| 2026-04-23 09:54 | 46.46238 | 11.32837 | 802 ft | 1 kts | 267° |
| 2026-04-23 09:54 | 46.46237 | 11.32807 | 802 ft | 4 kts | 269° |
| 2026-04-23 09:54 | 46.46244 | 11.32752 | 802 ft | 7 kts | 283° |
| 2026-04-23 09:54 | 46.46217 | 11.32699 | 802 ft | 8 kts | 197° |
| 2026-04-23 09:55 | 46.46148 | 11.32678 | 801 ft | 11 kts | 191° |
| 2026-04-23 09:55 | 46.46050 | 11.32649 | 800 ft | 17 kts | 190° |
| 2026-04-23 09:55 | 46.45917 | 11.32614 | 799 ft | 21 kts | 190° |
| 2026-04-23 09:55 | 46.45758 | 11.32571 | 799 ft | 24 kts | 189° |
| 2026-04-23 09:56 | 46.45585 | 11.32526 | 798 ft | 24 kts | 190° |
| 2026-04-23 09:56 | 46.45433 | 11.32485 | 797 ft | 20 kts | 189° |
| 2026-04-23 09:56 | 46.45301 | 11.32451 | 792 ft | 19 kts | 190° |
| 2026-04-23 09:56 | 46.45196 | 11.32456 | 791 ft | 10 kts | 173° |
| 2026-04-23 09:57 | 46.45172 | 11.32419 | 792 ft | 6 kts | 345° |
| 2026-04-23 09:57 | 46.45341 | 11.32464 | 801 ft | 63 kts | 10° |
| 2026-04-23 09:57 | 46.46042 | 11.32651 | 807 ft | 135 kts | 11° |
| 2026-04-23 09:57 | 46.47058 | 11.32964 | 1030 ft | 160 kts | 13° |
| 2026-04-23 09:58 | 46.48206 | 11.33328 | 1534 ft | 172 kts | 6° |
| 2026-04-23 09:58 | 46.49343 | 11.32861 | 2048 ft | 180 kts | 319° |
| 2026-04-23 09:58 | 46.49904 | 11.31297 | 2655 ft | 183 kts | 275° |
| 2026-04-23 09:58 | 46.49424 | 11.29584 | 2993 ft | 199 kts | 217° |
| 2026-04-23 09:59 | 46.48174 | 11.28830 | 3603 ft | 200 kts | 197° |
| 2026-04-23 09:59 | 46.46827 | 11.28268 | 4312 ft | 200 kts | 195° |
| 2026-04-23 09:59 | 46.45480 | 11.28004 | 5062 ft | 198 kts | 176° |
| 2026-04-23 09:59 | 46.44138 | 11.28270 | 5698 ft | 199 kts | 171° |
| 2026-04-23 10:00 | 46.42770 | 11.28566 | 6253 ft | 200 kts | 172° |
| 2026-04-23 10:00 | 46.41373 | 11.28849 | 6777 ft | 203 kts | 173° |
| 2026-04-23 10:00 | 46.39984 | 11.28843 | 7288 ft | 204 kts | 193° |
| 2026-04-23 10:00 | 46.38617 | 11.28285 | 7817 ft | 205 kts | 198° |
| 2026-04-23 10:01 | 46.37251 | 11.27673 | 8345 ft | 207 kts | 198° |
| 2026-04-23 10:01 | 46.35865 | 11.27047 | 8848 ft | 211 kts | 198° |
| 2026-04-23 10:01 | 46.34462 | 11.26414 | 9354 ft | 213 kts | 198° |
| 2026-04-23 10:01 | 46.33051 | 11.25777 | 9853 ft | 216 kts | 198° |
| 2026-04-23 10:02 | 46.31607 | 11.25126 | 10350 ft | 219 kts | 198° |
| 2026-04-23 10:02 | 46.30087 | 11.24439 | 10570 ft | 240 kts | 198° |
| 2026-04-23 10:02 | 46.28444 | 11.23699 | 10835 ft | 255 kts | 197° |
| 2026-04-23 10:02 | 46.26738 | 11.22933 | 11279 ft | 261 kts | 197° |
| 2026-04-23 10:03 | 46.24978 | 11.22142 | 11803 ft | 266 kts | 197° |
| 2026-04-23 10:03 | 46.23226 | 11.21356 | 12295 ft | 270 kts | 197° |
| 2026-04-23 10:03 | 46.21430 | 11.20548 | 12782 ft | 273 kts | 197° |
| 2026-04-23 10:03 | 46.19598 | 11.19724 | 13256 ft | 276 kts | 196° |
| 2026-04-23 10:04 | 46.17741 | 11.18892 | 13696 ft | 279 kts | 196° |
| 2026-04-23 10:04 | 46.15903 | 11.18066 | 14163 ft | 281 kts | 196° |
| 2026-04-23 10:04 | 46.14036 | 11.17227 | 14604 ft | 284 kts | 196° |
| 2026-04-23 10:04 | 46.12145 | 11.16380 | 15039 ft | 287 kts | 196° |
| 2026-04-23 10:05 | 46.10228 | 11.15523 | 15503 ft | 290 kts | 196° |
| 2026-04-23 10:05 | 46.08281 | 11.14653 | 15984 ft | 293 kts | 195° |
| 2026-04-23 10:05 | 46.06324 | 11.13790 | 16461 ft | 296 kts | 194° |
| 2026-04-23 10:05 | 46.04329 | 11.13149 | 16904 ft | 297 kts | 188° |
| 2026-04-23 10:06 | 46.02277 | 11.12608 | 17350 ft | 299 kts | 188° |
| 2026-04-23 10:06 | 46.00225 | 11.12069 | 17766 ft | 302 kts | 188° |
| 2026-04-23 10:06 | 45.98159 | 11.11525 | 18172 ft | 304 kts | 188° |
| 2026-04-23 10:06 | 45.96050 | 11.10968 | 18572 ft | 307 kts | 188° |
| 2026-04-23 10:07 | 45.93962 | 11.10416 | 18942 ft | 308 kts | 188° |
| 2026-04-23 10:07 | 45.91848 | 11.09856 | 19310 ft | 310 kts | 187° |
| 2026-04-23 10:07 | 45.89720 | 11.09292 | 19666 ft | 311 kts | 187° |
| 2026-04-23 10:07 | 45.87589 | 11.08727 | 20004 ft | 313 kts | 187° |
| 2026-04-23 10:08 | 45.85426 | 11.08153 | 20332 ft | 314 kts | 187° |
| 2026-04-23 10:08 | 45.83306 | 11.07592 | 20618 ft | 315 kts | 187° |
| 2026-04-23 10:08 | 45.81141 | 11.07018 | 20905 ft | 315 kts | 187° |
| 2026-04-23 10:09 | 45.76834 | 11.05879 | 21494 ft | 316 kts | 186° |
| 2026-04-23 10:09 | 45.74653 | 11.05301 | 21802 ft | 315 kts | 186° |
| 2026-04-23 10:09 | 45.72518 | 11.04735 | 22088 ft | 315 kts | 186° |
| 2026-04-23 10:09 | 45.70351 | 11.04162 | 22364 ft | 314 kts | 186° |
| 2026-04-23 10:10 | 45.68200 | 11.03594 | 22591 ft | 314 kts | 186° |
| 2026-04-23 10:10 | 45.66048 | 11.03026 | 22797 ft | 315 kts | 186° |
| 2026-04-23 10:10 | 45.63908 | 11.02554 | 22993 ft | 313 kts | 180° |
| 2026-04-23 10:10 | 45.61745 | 11.02378 | 23214 ft | 312 kts | 177° |
| 2026-04-23 10:11 | 45.59563 | 11.02249 | 23412 ft | 313 kts | 177° |
| 2026-04-23 10:11 | 45.57379 | 11.02118 | 23602 ft | 314 kts | 177° |
| 2026-04-23 10:11 | 45.55196 | 11.01986 | 23786 ft | 315 kts | 177° |
| 2026-04-23 10:11 | 45.53004 | 11.01853 | 23871 ft | 320 kts | 177° |
| 2026-04-23 10:12 | 45.50769 | 11.01717 | 23834 ft | 329 kts | 177° |
| 2026-04-23 10:12 | 45.48443 | 11.01575 | 23730 ft | 339 kts | 177° |
| 2026-04-23 10:12 | 45.46049 | 11.01427 | 23594 ft | 348 kts | 177° |
| 2026-04-23 10:12 | 45.43619 | 11.01275 | 23448 ft | 356 kts | 177° |
| 2026-04-23 10:13 | 45.41091 | 11.01114 | 23314 ft | 359 kts | 177° |
| 2026-04-23 10:13 | 45.38618 | 11.00954 | 23272 ft | 359 kts | 178° |
| 2026-04-23 10:13 | 45.36142 | 11.00793 | 23256 ft | 357 kts | 178° |
| 2026-04-23 10:13 | 45.33645 | 11.00631 | 23248 ft | 354 kts | 178° |
| 2026-04-23 10:14 | 45.31219 | 11.00475 | 23257 ft | 352 kts | 177° |
| 2026-04-23 10:14 | 45.28744 | 11.00316 | 23260 ft | 351 kts | 177° |
| 2026-04-23 10:14 | 45.26330 | 11.00161 | 23261 ft | 350 kts | 177° |
| 2026-04-23 10:14 | 45.23901 | 11.00006 | 23260 ft | 350 kts | 177° |
| 2026-04-23 10:15 | 45.21453 | 10.99850 | 23264 ft | 349 kts | 177° |
| 2026-04-23 10:15 | 45.19033 | 10.99696 | 23266 ft | 349 kts | 177° |
| 2026-04-23 10:15 | 45.16636 | 10.99544 | 23267 ft | 348 kts | 177° |
| 2026-04-23 10:15 | 45.14205 | 10.99389 | 23268 ft | 348 kts | 177° |
| 2026-04-23 10:16 | 45.11796 | 10.99236 | 23267 ft | 348 kts | 177° |
| 2026-04-23 10:16 | 45.09378 | 10.99082 | 23268 ft | 348 kts | 177° |
| 2026-04-23 10:16 | 45.06975 | 10.98930 | 23268 ft | 347 kts | 177° |
| 2026-04-23 10:16 | 45.04552 | 10.98776 | 23269 ft | 347 kts | 177° |
| 2026-04-23 10:17 | 45.02144 | 10.98624 | 23270 ft | 347 kts | 177° |
| 2026-04-23 10:17 | 44.99725 | 10.98471 | 23271 ft | 347 kts | 177° |
| 2026-04-23 10:17 | 44.97311 | 10.98319 | 23272 ft | 347 kts | 177° |
| 2026-04-23 10:17 | 44.94920 | 10.98168 | 23272 ft | 347 kts | 177° |
| 2026-04-23 10:18 | 44.92489 | 10.98014 | 23274 ft | 347 kts | 177° |
| 2026-04-23 10:18 | 44.90082 | 10.97862 | 23275 ft | 347 kts | 177° |
| 2026-04-23 10:18 | 44.87652 | 10.97709 | 23276 ft | 347 kts | 177° |
| 2026-04-23 10:18 | 44.85266 | 10.97559 | 23277 ft | 346 kts | 177° |
| 2026-04-23 10:19 | 44.82850 | 10.97407 | 23278 ft | 346 kts | 177° |
| 2026-04-23 10:19 | 44.80433 | 10.97255 | 23279 ft | 346 kts | 177° |
| 2026-04-23 10:19 | 44.78021 | 10.97104 | 23280 ft | 346 kts | 177° |
| 2026-04-23 10:19 | 44.75620 | 10.96953 | 23282 ft | 346 kts | 177° |
| 2026-04-23 10:20 | 44.73230 | 10.96803 | 23286 ft | 346 kts | 177° |
| 2026-04-23 10:20 | 44.70835 | 10.96653 | 23288 ft | 347 kts | 177° |
| 2026-04-23 10:20 | 44.68399 | 10.96501 | 23287 ft | 347 kts | 177° |
| 2026-04-23 10:20 | 44.65985 | 10.96350 | 23287 ft | 347 kts | 177° |
| 2026-04-23 10:21 | 44.63582 | 10.96200 | 23282 ft | 348 kts | 177° |
| 2026-04-23 10:21 | 44.61180 | 10.96050 | 23281 ft | 348 kts | 177° |
| 2026-04-23 10:21 | 44.58751 | 10.95898 | 23281 ft | 348 kts | 177° |
| 2026-04-23 10:21 | 44.56322 | 10.95747 | 23282 ft | 348 kts | 177° |
| 2026-04-23 10:22 | 44.53909 | 10.95596 | 23285 ft | 349 kts | 177° |
| 2026-04-23 10:22 | 44.51502 | 10.95447 | 23285 ft | 349 kts | 177° |
| 2026-04-23 10:22 | 44.49089 | 10.95297 | 23284 ft | 349 kts | 177° |
| 2026-04-23 10:22 | 44.46642 | 10.95145 | 23282 ft | 349 kts | 177° |
| 2026-04-23 10:23 | 44.44227 | 10.94994 | 23282 ft | 349 kts | 177° |
| 2026-04-23 10:23 | 44.41808 | 10.94844 | 23281 ft | 349 kts | 177° |
| 2026-04-23 10:23 | 44.39365 | 10.94693 | 23279 ft | 350 kts | 177° |
| 2026-04-23 10:23 | 44.36940 | 10.94543 | 23277 ft | 350 kts | 177° |
| 2026-04-23 10:24 | 44.34504 | 10.94392 | 23292 ft | 350 kts | 177° |
| 2026-04-23 10:24 | 44.32080 | 10.94243 | 23280 ft | 351 kts | 177° |
| 2026-04-23 10:24 | 44.29635 | 10.94092 | 23254 ft | 352 kts | 177° |
| 2026-04-23 10:24 | 44.27192 | 10.93941 | 23238 ft | 351 kts | 177° |
| 2026-04-23 10:25 | 44.24735 | 10.93789 | 23260 ft | 351 kts | 177° |
| 2026-04-23 10:25 | 44.22302 | 10.93639 | 23268 ft | 351 kts | 177° |
| 2026-04-23 10:25 | 44.19865 | 10.93489 | 23270 ft | 351 kts | 177° |
| 2026-04-23 10:25 | 44.17440 | 10.93340 | 23271 ft | 351 kts | 177° |
| 2026-04-23 10:26 | 44.14997 | 10.93189 | 23269 ft | 351 kts | 177° |
| 2026-04-23 10:26 | 44.12549 | 10.93038 | 23267 ft | 351 kts | 177° |
| 2026-04-23 10:26 | 44.10116 | 10.92889 | 23266 ft | 351 kts | 177° |
| 2026-04-23 10:26 | 44.07666 | 10.92739 | 23265 ft | 352 kts | 177° |
| 2026-04-23 10:27 | 44.05240 | 10.92591 | 23261 ft | 352 kts | 177° |
| 2026-04-23 10:27 | 44.02760 | 10.92439 | 23258 ft | 352 kts | 177° |
| 2026-04-23 10:27 | 44.00332 | 10.92291 | 23256 ft | 352 kts | 177° |
| 2026-04-23 10:27 | 43.97873 | 10.92141 | 23257 ft | 352 kts | 177° |
| 2026-04-23 10:28 | 43.95447 | 10.91992 | 23253 ft | 352 kts | 177° |
| 2026-04-23 10:28 | 43.92997 | 10.91843 | 23248 ft | 352 kts | 177° |
| 2026-04-23 10:28 | 43.90524 | 10.91693 | 23241 ft | 353 kts | 177° |
| 2026-04-23 10:28 | 43.88095 | 10.91545 | 23232 ft | 353 kts | 178° |
| 2026-04-23 10:29 | 43.85626 | 10.91395 | 23221 ft | 353 kts | 178° |
| 2026-04-23 10:29 | 43.83195 | 10.91027 | 23197 ft | 358 kts | 189° |
| 2026-04-23 10:29 | 43.80795 | 10.89979 | 23202 ft | 360 kts | 195° |
| 2026-04-23 10:29 | 43.78427 | 10.88838 | 23194 ft | 360 kts | 195° |
| 2026-04-23 10:30 | 43.76091 | 10.87712 | 23188 ft | 360 kts | 195° |
| 2026-04-23 10:30 | 43.73703 | 10.86566 | 23180 ft | 360 kts | 195° |
| 2026-04-23 10:30 | 43.71341 | 10.85436 | 23173 ft | 360 kts | 195° |
| 2026-04-23 10:30 | 43.68983 | 10.84313 | 23169 ft | 360 kts | 195° |
| 2026-04-23 10:31 | 43.66612 | 10.83187 | 23169 ft | 359 kts | 195° |
| 2026-04-23 10:31 | 43.64272 | 10.82077 | 23171 ft | 359 kts | 195° |
| 2026-04-23 10:31 | 43.61892 | 10.80949 | 23173 ft | 358 kts | 195° |
| 2026-04-23 10:31 | 43.59540 | 10.79825 | 23175 ft | 358 kts | 196° |
| 2026-04-23 10:32 | 43.57182 | 10.78697 | 23176 ft | 358 kts | 196° |
| 2026-04-23 10:32 | 43.54861 | 10.77590 | 23180 ft | 357 kts | 196° |
| 2026-04-23 10:32 | 43.52492 | 10.76460 | 23184 ft | 357 kts | 196° |
| 2026-04-23 10:32 | 43.50173 | 10.75356 | 23188 ft | 357 kts | 196° |
| 2026-04-23 10:33 | 43.47822 | 10.74238 | 23193 ft | 356 kts | 196° |
| 2026-04-23 10:33 | 43.45477 | 10.73126 | 23196 ft | 356 kts | 196° |
| 2026-04-23 10:33 | 43.43148 | 10.72038 | 23198 ft | 355 kts | 195° |
| 2026-04-23 10:33 | 43.40798 | 10.70948 | 23200 ft | 355 kts | 195° |
| 2026-04-23 10:34 | 43.38462 | 10.69865 | 23204 ft | 355 kts | 195° |
| 2026-04-23 10:34 | 43.36102 | 10.68771 | 23207 ft | 355 kts | 196° |
| 2026-04-23 10:34 | 43.33795 | 10.67702 | 23209 ft | 355 kts | 196° |
| 2026-04-23 10:34 | 43.31433 | 10.66608 | 23211 ft | 355 kts | 196° |
| 2026-04-23 10:35 | 43.29092 | 10.65525 | 23208 ft | 356 kts | 196° |
| 2026-04-23 10:35 | 43.26764 | 10.64446 | 23206 ft | 356 kts | 196° |
| 2026-04-23 10:35 | 43.24408 | 10.63345 | 23205 ft | 356 kts | 196° |
| 2026-04-23 10:35 | 43.22065 | 10.62248 | 23203 ft | 357 kts | 197° |
| 2026-04-23 10:36 | 43.19707 | 10.61146 | 23203 ft | 357 kts | 197° |
| 2026-04-23 10:36 | 43.17381 | 10.60060 | 23202 ft | 357 kts | 197° |
| 2026-04-23 10:36 | 43.15017 | 10.58957 | 23201 ft | 357 kts | 197° |
| 2026-04-23 10:36 | 43.12688 | 10.57872 | 23201 ft | 357 kts | 197° |
| 2026-04-23 10:37 | 43.10345 | 10.56781 | 23200 ft | 357 kts | 197° |
| 2026-04-23 10:37 | 43.07974 | 10.55678 | 23200 ft | 357 kts | 197° |
| 2026-04-23 10:37 | 43.05619 | 10.54583 | 23200 ft | 357 kts | 197° |
| 2026-04-23 10:37 | 43.03290 | 10.53501 | 23201 ft | 357 kts | 197° |
| 2026-04-23 10:38 | 43.00940 | 10.52411 | 23204 ft | 358 kts | 197° |
| 2026-04-23 10:38 | 42.98583 | 10.51318 | 23209 ft | 358 kts | 197° |
| 2026-04-23 10:38 | 42.96210 | 10.50218 | 23215 ft | 358 kts | 198° |
| 2026-04-23 10:38 | 42.93865 | 10.49133 | 23221 ft | 358 kts | 198° |
| 2026-04-23 10:39 | 42.91521 | 10.48048 | 23226 ft | 358 kts | 198° |
| 2026-04-23 10:39 | 42.89172 | 10.46963 | 23227 ft | 358 kts | 198° |
| 2026-04-23 10:39 | 42.86797 | 10.45866 | 23230 ft | 358 kts | 198° |
| 2026-04-23 10:39 | 42.84423 | 10.44771 | 23232 ft | 358 kts | 198° |
| 2026-04-23 10:40 | 42.82066 | 10.43684 | 23234 ft | 359 kts | 198° |
| 2026-04-23 10:40 | 42.79718 | 10.42602 | 23236 ft | 359 kts | 198° |
| 2026-04-23 10:40 | 42.77359 | 10.41517 | 23238 ft | 359 kts | 199° |
| 2026-04-23 10:40 | 42.74985 | 10.40425 | 23240 ft | 359 kts | 199° |
| 2026-04-23 10:41 | 42.72622 | 10.39341 | 23238 ft | 359 kts | 198° |
| 2026-04-23 10:41 | 42.70242 | 10.38383 | 23240 ft | 359 kts | 195° |
| 2026-04-23 10:41 | 42.67834 | 10.37495 | 23239 ft | 359 kts | 195° |
| 2026-04-23 10:41 | 42.65398 | 10.36596 | 23240 ft | 359 kts | 196° |
| 2026-04-23 10:42 | 42.62995 | 10.35706 | 23240 ft | 359 kts | 196° |
| 2026-04-23 10:42 | 42.60595 | 10.34814 | 23240 ft | 359 kts | 195° |
| 2026-04-23 10:42 | 42.58183 | 10.33915 | 23241 ft | 359 kts | 196° |
| 2026-04-23 10:42 | 42.55756 | 10.33009 | 23241 ft | 359 kts | 196° |
| 2026-04-23 10:43 | 42.53368 | 10.32118 | 23240 ft | 359 kts | 196° |
| 2026-04-23 10:43 | 42.50961 | 10.31218 | 23240 ft | 359 kts | 196° |
| 2026-04-23 10:43 | 42.48524 | 10.30307 | 23240 ft | 359 kts | 196° |
| 2026-04-23 10:43 | 42.46113 | 10.29406 | 23239 ft | 359 kts | 197° |
| 2026-04-23 10:44 | 42.43706 | 10.28507 | 23239 ft | 359 kts | 197° |
| 2026-04-23 10:44 | 42.41316 | 10.27615 | 23238 ft | 359 kts | 197° |
| 2026-04-23 10:44 | 42.38900 | 10.26713 | 23238 ft | 360 kts | 197° |
| 2026-04-23 10:44 | 42.36481 | 10.25811 | 23237 ft | 360 kts | 197° |
| 2026-04-23 10:45 | 42.34085 | 10.24919 | 23231 ft | 360 kts | 197° |
| 2026-04-23 10:45 | 42.31664 | 10.24018 | 23227 ft | 360 kts | 198° |
| 2026-04-23 10:45 | 42.29256 | 10.23124 | 23223 ft | 360 kts | 198° |
| 2026-04-23 10:45 | 42.27195 | 10.22358 | 23220 ft | 360 kts | 198° |
| 2026-04-23 10:46 | 42.25434 | 10.21705 | 23222 ft | 359 kts | 198° |
| 2026-04-23 10:46 | 42.23037 | 10.20816 | 23223 ft | 359 kts | 198° |
| 2026-04-23 10:46 | 42.20626 | 10.19923 | 23224 ft | 359 kts | 198° |
| 2026-04-23 10:46 | 42.18228 | 10.19035 | 23224 ft | 359 kts | 198° |
| 2026-04-23 10:47 | 42.15823 | 10.18145 | 23223 ft | 359 kts | 198° |
| 2026-04-23 10:47 | 42.13425 | 10.17259 | 23223 ft | 358 kts | 198° |
| 2026-04-23 10:47 | 42.10995 | 10.16361 | 23223 ft | 358 kts | 198° |
| 2026-04-23 10:47 | 42.08603 | 10.15478 | 23223 ft | 358 kts | 198° |
| 2026-04-23 10:48 | 42.06203 | 10.14593 | 23223 ft | 358 kts | 199° |
| 2026-04-23 10:48 | 42.03816 | 10.13713 | 23221 ft | 358 kts | 199° |
| 2026-04-23 10:48 | 42.01398 | 10.12823 | 23219 ft | 358 kts | 199° |
| 2026-04-23 10:48 | 41.98989 | 10.11936 | 23217 ft | 358 kts | 199° |
| 2026-04-23 10:49 | 41.96590 | 10.11054 | 23216 ft | 358 kts | 199° |
| 2026-04-23 10:49 | 41.94197 | 10.10175 | 23218 ft | 358 kts | 199° |
| 2026-04-23 10:49 | 41.91789 | 10.09290 | 23222 ft | 358 kts | 199° |
| 2026-04-23 10:49 | 41.89394 | 10.08412 | 23225 ft | 357 kts | 199° |
| 2026-04-23 10:50 | 41.87002 | 10.07535 | 23230 ft | 357 kts | 199° |
| 2026-04-23 10:50 | 41.84611 | 10.06659 | 23232 ft | 356 kts | 199° |
| 2026-04-23 10:50 | 41.82219 | 10.05783 | 23234 ft | 356 kts | 199° |
| 2026-04-23 10:50 | 41.79819 | 10.04906 | 23235 ft | 356 kts | 199° |
| 2026-04-23 10:51 | 41.77439 | 10.04036 | 23236 ft | 356 kts | 199° |
| 2026-04-23 10:51 | 41.75034 | 10.03158 | 23236 ft | 356 kts | 199° |
| 2026-04-23 10:51 | 41.72665 | 10.02294 | 23236 ft | 356 kts | 199° |
| 2026-04-23 10:51 | 41.70267 | 10.01419 | 23236 ft | 355 kts | 199° |
| 2026-04-23 10:52 | 41.67900 | 10.00557 | 23235 ft | 355 kts | 199° |
| 2026-04-23 10:52 | 41.65498 | 9.99683 | 23235 ft | 355 kts | 199° |
| 2026-04-23 10:52 | 41.63116 | 9.98816 | 23235 ft | 355 kts | 199° |
| 2026-04-23 10:52 | 41.60748 | 9.97956 | 23235 ft | 355 kts | 199° |
| 2026-04-23 10:53 | 41.58353 | 9.97086 | 23233 ft | 355 kts | 199° |
| 2026-04-23 10:53 | 41.55981 | 9.96225 | 23219 ft | 356 kts | 199° |
| 2026-04-23 10:53 | 41.53559 | 9.95345 | 23043 ft | 360 kts | 199° |
| 2026-04-23 10:53 | 41.51161 | 9.94479 | 23007 ft | 356 kts | 199° |
| 2026-04-23 10:54 | 41.48780 | 9.93618 | 22749 ft | 359 kts | 199° |
| 2026-04-23 10:54 | 41.46363 | 9.92747 | 22355 ft | 358 kts | 199° |
| 2026-04-23 10:54 | 41.43972 | 9.91887 | 21921 ft | 357 kts | 199° |
| 2026-04-23 10:54 | 41.41566 | 9.91020 | 21469 ft | 357 kts | 200° |
| 2026-04-23 10:55 | 41.39191 | 9.90165 | 20989 ft | 356 kts | 200° |
| 2026-04-23 10:55 | 41.36818 | 9.89311 | 20530 ft | 353 kts | 200° |
| 2026-04-23 10:55 | 41.34438 | 9.88455 | 20079 ft | 351 kts | 200° |
| 2026-04-23 10:55 | 41.32122 | 9.87623 | 19645 ft | 348 kts | 199° |
| 2026-04-23 10:56 | 41.29770 | 9.86777 | 19205 ft | 345 kts | 199° |
| 2026-04-23 10:56 | 41.27478 | 9.85953 | 18774 ft | 343 kts | 200° |
| 2026-04-23 10:56 | 41.25291 | 9.84800 | 18324 ft | 332 kts | 216° |
| 2026-04-23 10:56 | 41.23434 | 9.83091 | 17932 ft | 325 kts | 222° |
| 2026-04-23 10:57 | 41.21614 | 9.81334 | 17529 ft | 322 kts | 222° |
| 2026-04-23 10:57 | 41.19808 | 9.79585 | 17126 ft | 319 kts | 222° |
| 2026-04-23 10:57 | 41.18035 | 9.77872 | 16729 ft | 316 kts | 222° |
| 2026-04-23 10:57 | 41.16263 | 9.76163 | 16334 ft | 313 kts | 221° |
| 2026-04-23 10:58 | 41.14526 | 9.74491 | 15944 ft | 311 kts | 221° |
| 2026-04-23 10:58 | 41.12770 | 9.72803 | 15551 ft | 309 kts | 221° |
| 2026-04-23 10:58 | 41.11048 | 9.71150 | 15168 ft | 307 kts | 221° |
| 2026-04-23 10:58 | 41.09318 | 9.69490 | 14782 ft | 305 kts | 221° |
| 2026-04-23 10:59 | 41.07601 | 9.67846 | 14402 ft | 304 kts | 221° |
| 2026-04-23 10:59 | 41.05909 | 9.66226 | 14026 ft | 302 kts | 221° |
| 2026-04-23 10:59 | 41.04201 | 9.64593 | 13647 ft | 301 kts | 220° |
| 2026-04-23 10:59 | 41.02522 | 9.62990 | 13275 ft | 300 kts | 220° |
| 2026-04-23 11:00 | 41.00829 | 9.61373 | 12901 ft | 299 kts | 220° |
| 2026-04-23 11:00 | 40.99139 | 9.59762 | 12525 ft | 298 kts | 220° |
| 2026-04-23 11:00 | 40.97452 | 9.58153 | 12150 ft | 298 kts | 220° |
| 2026-04-23 11:00 | 40.95774 | 9.56555 | 11776 ft | 297 kts | 219° |
| 2026-04-23 11:01 | 40.94114 | 9.54978 | 11406 ft | 296 kts | 219° |
| 2026-04-23 11:01 | 40.92428 | 9.53375 | 11030 ft | 296 kts | 219° |
| 2026-04-23 11:01 | 40.90755 | 9.51785 | 10659 ft | 295 kts | 219° |
| 2026-04-23 11:01 | 40.89104 | 9.50197 | 10287 ft | 294 kts | 221° |
| 2026-04-23 11:02 | 40.87555 | 9.48456 | 9922 ft | 291 kts | 225° |
| 2026-04-23 11:02 | 40.86062 | 9.46678 | 9574 ft | 289 kts | 225° |
| 2026-04-23 11:02 | 40.84569 | 9.44895 | 9222 ft | 288 kts | 225° |
| 2026-04-23 11:02 | 40.83092 | 9.43135 | 8848 ft | 286 kts | 225° |
| 2026-04-23 11:03 | 40.81618 | 9.41384 | 8486 ft | 283 kts | 224° |
| 2026-04-23 11:03 | 40.80175 | 9.39673 | 8134 ft | 278 kts | 224° |
| 2026-04-23 11:03 | 40.78748 | 9.37988 | 7788 ft | 272 kts | 224° |
| 2026-04-23 11:03 | 40.77356 | 9.36341 | 7452 ft | 267 kts | 224° |
| 2026-04-23 11:04 | 40.75980 | 9.34716 | 7121 ft | 262 kts | 223° |
| 2026-04-23 11:04 | 40.74625 | 9.33114 | 6793 ft | 258 kts | 223° |
| 2026-04-23 11:04 | 40.73308 | 9.31558 | 6476 ft | 254 kts | 223° |
| 2026-04-23 11:04 | 40.72012 | 9.30027 | 6163 ft | 250 kts | 223° |
| 2026-04-23 11:05 | 40.70715 | 9.28496 | 5851 ft | 246 kts | 223° |
| 2026-04-23 11:05 | 40.69480 | 9.26957 | 5542 ft | 241 kts | 231° |
| 2026-04-23 11:05 | 40.68809 | 9.25093 | 5470 ft | 218 kts | 263° |
| 2026-04-23 11:05 | 40.68907 | 9.23195 | 5493 ft | 202 kts | 291° |
| 2026-04-23 11:06 | 40.70799 | 9.20908 | 5493 ft | 187 kts | 355° |
| 2026-04-23 11:06 | 40.72057 | 9.21209 | 5483 ft | 184 kts | 24° |
| 2026-04-23 11:06 | 40.73231 | 9.21895 | 5508 ft | 185 kts | 24° |
| 2026-04-23 11:07 | 40.74388 | 9.22657 | 5437 ft | 190 kts | 37° |
| 2026-04-23 11:07 | 40.75246 | 9.24021 | 5336 ft | 196 kts | 56° |
| 2026-04-23 11:07 | 40.75994 | 9.25482 | 5211 ft | 187 kts | 52° |
| 2026-04-23 11:07 | 40.76755 | 9.26847 | 4974 ft | 186 kts | 53° |
| 2026-04-23 11:08 | 40.77495 | 9.28232 | 4700 ft | 186 kts | 53° |
| 2026-04-23 11:08 | 40.78240 | 9.29643 | 4413 ft | 186 kts | 53° |
| 2026-04-23 11:08 | 40.78979 | 9.31035 | 4130 ft | 188 kts | 54° |
| 2026-04-23 11:08 | 40.79730 | 9.32462 | 3861 ft | 193 kts | 54° |
| 2026-04-23 11:09 | 40.80494 | 9.33909 | 3561 ft | 190 kts | 53° |
| 2026-04-23 11:09 | 40.81237 | 9.35318 | 3243 ft | 186 kts | 54° |
| 2026-04-23 11:09 | 40.81971 | 9.36714 | 2938 ft | 180 kts | 53° |
| 2026-04-23 11:09 | 40.82670 | 9.38037 | 2649 ft | 174 kts | 53° |
| 2026-04-23 11:10 | 40.83334 | 9.39298 | 2425 ft | 158 kts | 53° |
| 2026-04-23 11:10 | 40.83943 | 9.40471 | 2180 ft | 152 kts | 54° |
| 2026-04-23 11:10 | 40.84529 | 9.41596 | 2009 ft | 148 kts | 53° |
| 2026-04-23 11:10 | 40.85112 | 9.42704 | 1765 ft | 143 kts | 53° |
| 2026-04-23 11:11 | 40.85653 | 9.43721 | 1499 ft | 130 kts | 53° |
| 2026-04-23 11:11 | 40.86147 | 9.44666 | 1290 ft | 120 kts | 54° |
| 2026-04-23 11:11 | 40.86610 | 9.45567 | 1123 ft | 116 kts | 54° |
| 2026-04-23 11:11 | 40.87074 | 9.46465 | 1004 ft | 123 kts | 53° |
| 2026-04-23 11:12 | 40.87582 | 9.47413 | 819 ft | 127 kts | 52° |
| 2026-04-23 11:12 | 40.88089 | 9.48368 | 607 ft | 127 kts | 52° |
| 2026-04-23 11:12 | 40.88596 | 9.49320 | 398 ft | 128 kts | 51° |
| 2026-04-23 11:12 | 40.89103 | 9.50293 | 202 ft | 127 kts | 51° |
| 2026-04-23 11:13 | 40.89595 | 9.51236 | 50 ft | 119 kts | 53° |
| 2026-04-23 11:13 | 40.90009 | 9.52025 | 49 ft | 83 kts | 57° |
| 2026-04-23 11:13 | 40.90269 | 9.52531 | 49 ft | 52 kts | 56° |
| 2026-04-23 11:13 | 40.90360 | 9.52693 | 50 ft | 6 kts | 14° |
| 2026-04-23 11:14 | 40.90411 | 9.52687 | 50 ft | 7 kts | 351° |
| 2026-04-23 11:14 | 40.90449 | 9.52642 | 50 ft | 8 kts | 283° |
| 2026-04-23 11:14 | 40.90455 | 9.52532 | 50 ft | 15 kts | 273° |
| 2026-04-23 11:14 | 40.90413 | 9.52429 | 50 ft | 12 kts | 235° |
| 2026-04-23 11:15 | 40.90377 | 9.52345 | 50 ft | 6 kts | 248° |
| 2026-04-23 11:15 | 40.90362 | 9.52306 | 50 ft | 5 kts | 221° |
| 2026-04-23 11:15 | 40.90336 | 9.52264 | 50 ft | 6 kts | 236° |
| 2026-04-23 11:15 | 40.90308 | 9.52210 | 50 ft | 7 kts | 234° |
| 2026-04-23 11:16 | 40.90270 | 9.52140 | 50 ft | 12 kts | 234° |
| 2026-04-23 11:16 | 40.90215 | 9.52035 | 50 ft | 14 kts | 234° |
| 2026-04-23 11:16 | 40.90178 | 9.51938 | 50 ft | 10 kts | 269° |
| 2026-04-23 11:16 | 40.90185 | 9.51855 | 50 ft | 5 kts | 281° |
| 2026-04-23 11:17 | 40.90209 | 9.51816 | 50 ft | 5 kts | 324° |
| 2026-04-23 11:17 | 40.90242 | 9.51801 | 50 ft | 5 kts | 360° |
| 2026-04-23 11:17 | 40.90277 | 9.51780 | 50 ft | 6 kts | 327° |
| 2026-04-23 11:17 | 40.90300 | 9.51768 | 50 ft | 1 kts | 27° |
| 2026-04-23 11:18 | 40.90303 | 9.51770 | 50 ft | 0 kts | 26° |